Time,TemperatureF,DewpointF,PressureIn,WindDirection,WindDirectionDegrees,WindSpeedMPH,WindSpeedGustMPH,Humidity,HourlyPrecipIn,Conditions,Clouds,dailyrainin,SolarRadiationWatts/m^2,SoftwareType,DateUTC
2013-10-20 00:10:00,45.7,43.0,30.07,WNW,295,0.0,0.0,91,0.00,,,0.14,0,weatherlink.com 1.10,2013-10-20 05:10:00,
2013-10-20 00:25:00,45.5,43.0,30.07,WNW,294,0.0,0.0,91,0.00,,,0.14,0,weatherlink.com 1.10,2013-10-20 05:25:00,
2013-10-20 00:40:00,45.3,43.0,30.07,North,4,0.0,0.0,91,0.00,,,0.14,0,weatherlink.com 1.10,2013-10-20 05:40:00,
2013-10-20 00:55:00,45.0,43.0,30.07,WNW,296,0.0,0.0,91,0.00,,,0.14,0,weatherlink.com 1.10,2013-10-20 05:55:00,
2013-10-20 01:10:00,44.6,42.0,30.07,WNW,295,0.0,0.0,91,0.00,,,0.14,0,weatherlink.com 1.10,2013-10-20 06:10:00,
2013-10-20 01:25:00,44.3,42.0,30.06,WNW,295,0.0,0.0,91,0.00,,,0.14,0,weatherlink.com 1.10,2013-10-20 06:25:00,
2013-10-20 01:40:00,44.2,42.0,30.07,WNW,295,0.0,0.0,91,0.00,,,0.00,0,weatherlink.com 1.10,2013-10-20 06:40:00,
2013-10-20 01:55:00,43.9,42.0,30.07,WNW,295,0.0,0.0,92,0.00,,,0.00,0,weatherlink.com 1.10,2013-10-20 06:55:00,
2013-10-20 02:10:00,43.3,41.0,30.06,WNW,294,0.0,0.0,92,0.00,,,0.00,0,weatherlink.com 1.10,2013-10-20 07:10:00,
2013-10-20 02:25:00,43.0,41.0,30.06,WNW,294,0.0,0.0,92,0.00,,,0.00,0,weatherlink.com 1.10,2013-10-20 07:25:00,
2013-10-20 02:40:00,42.8,41.0,30.06,WNW,296,0.0,0.0,92,0.00,,,0.00,0,weatherlink.com 1.10,2013-10-20 07:40:00,
2013-10-20 02:55:00,42.8,41.0,30.06,WNW,295,0.0,0.0,92,0.00,,,0.00,0,weatherlink.com 1.10,2013-10-20 07:55:00,
2013-10-20 03:10:00,42.8,41.0,30.06,North,4,0.0,0.0,92,0.00,,,0.00,0,weatherlink.com 1.10,2013-10-20 08:10:00,
2013-10-20 03:25:00,42.8,41.0,30.06,WNW,295,0.0,0.0,92,0.00,,,0.00,0,weatherlink.com 1.10,2013-10-20 08:25:00,
2013-10-20 03:40:00,42.7,41.0,30.06,North,4,0.0,0.0,92,0.00,,,0.00,0,weatherlink.com 1.10,2013-10-20 08:40:00,
2013-10-20 03:55:00,42.0,40.0,30.05,WNW,295,0.0,0.0,92,0.00,,,0.00,0,weatherlink.com 1.10,2013-10-20 08:55:00,
2013-10-20 04:10:00,41.8,40.0,30.05,WNW,296,0.0,0.0,92,0.00,,,0.00,0,weatherlink.com 1.10,2013-10-20 09:10:00,
2013-10-20 04:25:00,42.0,40.0,30.05,WNW,296,0.0,0.0,92,0.00,,,0.00,0,weatherlink.com 1.10,2013-10-20 09:25:00,
2013-10-20 04:40:00,42.2,40.0,30.05,WNW,294,0.0,0.0,92,0.00,,,0.00,0,weatherlink.com 1.10,2013-10-20 09:40:00,
2013-10-20 04:55:00,42.0,40.0,30.06,WNW,296,0.0,0.0,92,0.00,,,0.00,0,weatherlink.com 1.10,2013-10-20 09:55:00,
2013-10-20 05:10:00,41.8,40.0,30.06,North,4,0.0,0.0,92,0.00,,,0.00,0,weatherlink.com 1.10,2013-10-20 10:10:00,
2013-10-20 05:25:00,41.8,40.0,30.07,WNW,295,0.0,0.0,93,0.00,,,0.00,0,weatherlink.com 1.10,2013-10-20 10:25:00,
2013-10-20 05:40:00,41.8,40.0,30.07,WNW,295,0.0,0.0,93,0.00,,,0.00,0,weatherlink.com 1.10,2013-10-20 10:40:00,
2013-10-20 05:55:00,41.5,39.0,30.08,WNW,296,0.0,0.0,92,0.00,,,0.00,0,weatherlink.com 1.10,2013-10-20 10:55:00,
2013-10-20 06:10:00,41.5,39.0,30.08,WNW,294,0.0,0.0,92,0.00,,,0.00,0,weatherlink.com 1.10,2013-10-20 11:10:00,
2013-10-20 06:26:00,41.2,39.0,30.09,North,4,0.0,0.0,93,0.00,,,0.00,0,weatherlink.com 1.10,2013-10-20 11:26:00,
2013-10-20 06:41:00,40.7,39.0,30.08,WNW,295,0.0,0.0,92,0.00,,,0.00,0,weatherlink.com 1.10,2013-10-20 11:41:00,
2013-10-20 06:56:00,40.7,39.0,30.08,WNW,294,0.0,0.0,93,0.00,,,0.00,0,weatherlink.com 1.10,2013-10-20 11:56:00,
2013-10-20 07:11:00,40.5,39.0,30.08,WNW,295,0.0,0.0,93,0.00,,,0.00,0,weatherlink.com 1.10,2013-10-20 12:11:00,
2013-10-20 07:26:00,40.0,38.0,30.09,WNW,296,0.0,0.0,92,0.00,,,0.00,5,weatherlink.com 1.10,2013-10-20 12:26:00,
2013-10-20 07:41:00,39.8,38.0,30.09,WNW,295,0.0,0.0,92,0.00,,,0.00,12,weatherlink.com 1.10,2013-10-20 12:41:00,
2013-10-20 07:56:00,39.9,38.0,30.10,WNW,294,0.0,0.0,93,0.00,,,0.00,18,weatherlink.com 1.10,2013-10-20 12:56:00,
2013-10-20 08:11:00,40.4,39.0,30.11,WNW,294,0.0,0.0,93,0.00,,,0.00,23,weatherlink.com 1.10,2013-10-20 13:11:00,
2013-10-20 08:26:00,41.4,40.0,30.11,North,4,0.0,0.0,93,0.00,,,0.00,26,weatherlink.com 1.10,2013-10-20 13:26:00,
2013-10-20 08:41:00,42.9,41.0,30.11,WNW,295,0.0,0.0,93,0.00,,,0.00,32,weatherlink.com 1.10,2013-10-20 13:41:00,
2013-10-20 08:56:00,45.6,44.0,30.11,WNW,295,0.0,0.0,94,0.00,,,0.00,51,weatherlink.com 1.10,2013-10-20 13:56:00,
2013-10-20 09:11:00,48.5,47.0,30.12,WNW,294,0.0,2.0,94,0.00,,,0.00,40,weatherlink.com 1.10,2013-10-20 14:11:00,
2013-10-20 09:26:00,50.3,49.0,30.12,WNW,294,0.0,1.0,94,0.00,,,0.00,179,weatherlink.com 1.10,2013-10-20 14:26:00,
2013-10-20 09:41:00,52.8,51.0,30.12,WNW,295,0.0,2.0,94,0.00,,,0.00,454,weatherlink.com 1.10,2013-10-20 14:41:00,
2013-10-20 09:56:00,54.6,53.0,30.12,SE,136,0.0,5.0,94,0.00,,,0.00,499,weatherlink.com 1.10,2013-10-20 14:56:00,
2013-10-20 10:11:00,57.5,54.0,30.11,ENE,62,0.0,5.0,89,0.00,,,0.00,568,weatherlink.com 1.10,2013-10-20 15:11:00,
2013-10-20 10:26:00,59.2,52.0,30.11,SSE,167,1.0,6.0,76,0.00,,,0.00,612,weatherlink.com 1.10,2013-10-20 15:26:00,
2013-10-20 10:41:00,59.1,49.0,30.11,ENE,67,3.0,4.0,69,0.00,,,0.00,649,weatherlink.com 1.10,2013-10-20 15:41:00,
2013-10-20 10:56:00,59.9,49.0,30.11,SE,140,1.0,5.0,68,0.00,,,0.00,684,weatherlink.com 1.10,2013-10-20 15:56:00,
2013-10-20 11:11:00,60.6,46.0,30.11,NNE,18,0.0,5.0,59,0.00,,,0.00,712,weatherlink.com 1.10,2013-10-20 16:11:00,
2013-10-20 11:27:00,61.9,47.0,30.11,NNE,32,0.0,2.0,58,0.00,,,0.00,737,weatherlink.com 1.10,2013-10-20 16:27:00,
2013-10-20 11:42:00,62.9,45.0,30.11,South,177,0.0,5.0,52,0.00,,,0.00,763,weatherlink.com 1.10,2013-10-20 16:42:00,
2013-10-20 11:57:00,63.5,45.0,30.10,East,80,2.0,2.0,52,0.00,,,0.00,777,weatherlink.com 1.10,2013-10-20 16:57:00,
2013-10-20 12:12:00,64.7,43.0,30.09,ENE,57,0.0,4.0,45,0.00,,,0.00,793,weatherlink.com 1.10,2013-10-20 17:12:00,
2013-10-20 12:27:00,65.5,45.0,30.09,ENE,63,0.0,4.0,48,0.00,,,0.00,800,weatherlink.com 1.10,2013-10-20 17:27:00,
2013-10-20 12:42:00,65.4,42.0,30.08,ENE,64,1.0,4.0,43,0.00,,,0.00,809,weatherlink.com 1.10,2013-10-20 17:42:00,
2013-10-20 12:57:00,66.4,45.0,30.06,ENE,64,1.0,4.0,46,0.00,,,0.00,809,weatherlink.com 1.10,2013-10-20 17:57:00,
2013-10-20 13:12:00,67.3,45.0,30.06,ENE,63,4.0,5.0,44,0.00,,,0.00,800,weatherlink.com 1.10,2013-10-20 18:12:00,
2013-10-20 13:27:00,67.4,44.0,30.04,North,4,1.0,5.0,43,0.00,,,0.00,791,weatherlink.com 1.10,2013-10-20 18:27:00,
2013-10-20 13:42:00,67.5,43.0,30.03,ESE,116,0.0,4.0,42,0.00,,,0.00,777,weatherlink.com 1.10,2013-10-20 18:42:00,
2013-10-20 13:57:00,68.2,46.0,30.02,ESE,116,0.0,2.0,45,0.00,,,0.00,759,weatherlink.com 1.10,2013-10-20 18:57:00,
2013-10-20 14:12:00,68.3,45.0,30.02,East,84,0.0,1.0,43,0.00,,,0.00,731,weatherlink.com 1.10,2013-10-20 19:12:00,
2013-10-20 14:27:00,68.9,46.0,30.02,SW,216,0.0,5.0,44,0.00,,,0.00,705,weatherlink.com 1.10,2013-10-20 19:27:00,
2013-10-20 14:42:00,70.1,43.0,30.01,SSW,212,0.0,1.0,38,0.00,,,0.00,680,weatherlink.com 1.10,2013-10-20 19:42:00,
2013-10-20 14:57:00,69.5,45.0,30.00,North,359,0.0,1.0,41,0.00,,,0.00,643,weatherlink.com 1.10,2013-10-20 19:57:00,
2013-10-20 15:12:00,68.1,45.0,30.00,North,4,0.0,2.0,44,0.00,,,0.00,601,weatherlink.com 1.10,2013-10-20 20:12:00,
2013-10-20 15:27:00,68.2,46.0,29.99,North,359,0.0,2.0,45,0.00,,,0.00,568,weatherlink.com 1.10,2013-10-20 20:27:00,
2013-10-20 15:42:00,67.9,47.0,29.99,North,4,0.0,1.0,47,0.00,,,0.00,524,weatherlink.com 1.10,2013-10-20 20:42:00,
2013-10-20 15:57:00,67.8,46.0,29.99,North,359,0.0,1.0,45,0.00,,,0.00,478,weatherlink.com 1.10,2013-10-20 20:57:00,
2013-10-20 16:12:00,67.2,46.0,29.99,North,359,0.0,2.0,46,0.00,,,0.00,429,weatherlink.com 1.10,2013-10-20 21:12:00,
2013-10-20 16:27:00,67.0,46.0,29.99,North,359,0.0,1.0,48,0.00,,,0.00,380,weatherlink.com 1.10,2013-10-20 21:27:00,
2013-10-20 16:42:00,67.1,48.0,29.99,North,359,0.0,1.0,51,0.00,,,0.00,325,weatherlink.com 1.10,2013-10-20 21:42:00,
2013-10-20 16:57:00,66.9,49.0,29.99,North,4,0.0,0.0,53,0.00,,,0.00,33,weatherlink.com 1.10,2013-10-20 21:57:00,
2013-10-20 17:12:00,66.4,49.0,29.99,North,4,0.0,0.0,54,0.00,,,0.00,40,weatherlink.com 1.10,2013-10-20 22:12:00,
2013-10-20 17:27:00,65.7,50.0,29.99,SW,233,0.0,2.0,57,0.00,,,0.00,26,weatherlink.com 1.10,2013-10-20 22:27:00,
2013-10-20 17:43:00,65.1,51.0,29.99,SW,232,0.0,0.0,60,0.00,,,0.00,23,weatherlink.com 1.10,2013-10-20 22:43:00,
2013-10-20 17:57:00,64.2,52.0,29.98,SW,233,0.0,0.0,65,0.00,,,0.00,18,weatherlink.com 1.10,2013-10-20 22:57:00,
2013-10-20 18:12:00,63.0,52.0,29.98,SW,233,0.0,0.0,68,0.00,,,0.00,12,weatherlink.com 1.10,2013-10-20 23:12:00,
2013-10-20 18:27:00,61.6,52.0,29.98,SW,233,0.0,0.0,70,0.00,,,0.00,5,weatherlink.com 1.10,2013-10-20 23:27:00,
2013-10-20 18:42:00,60.7,53.0,29.98,SW,232,0.0,0.0,75,0.00,,,0.00,0,weatherlink.com 1.10,2013-10-20 23:42:00,
2013-10-20 18:57:00,58.8,52.0,29.99,SW,233,0.0,0.0,78,0.00,,,0.00,0,weatherlink.com 1.10,2013-10-20 23:57:00,
2013-10-20 19:12:00,57.2,51.0,29.99,SW,231,0.0,0.0,81,0.00,,,0.00,0,weatherlink.com 1.10,2013-10-21 00:12:00,
2013-10-20 19:27:00,55.9,51.0,29.99,SW,233,0.0,0.0,83,0.00,,,0.00,0,weatherlink.com 1.10,2013-10-21 00:27:00,
2013-10-20 19:42:00,54.7,50.0,29.99,SW,232,0.0,0.0,84,0.00,,,0.00,0,weatherlink.com 1.10,2013-10-21 00:42:00,
2013-10-20 19:57:00,53.9,50.0,30.00,SW,231,0.0,0.0,86,0.00,,,0.00,0,weatherlink.com 1.10,2013-10-21 00:57:00,
2013-10-20 20:13:00,53.3,50.0,29.99,SW,232,0.0,0.0,87,0.00,,,0.00,0,weatherlink.com 1.10,2013-10-21 01:13:00,
2013-10-20 20:28:00,52.6,49.0,29.99,SW,233,0.0,0.0,87,0.00,,,0.00,0,weatherlink.com 1.10,2013-10-21 01:28:00,
2013-10-20 20:43:00,52.1,49.0,29.99,SW,232,0.0,0.0,88,0.00,,,0.00,0,weatherlink.com 1.10,2013-10-21 01:43:00,
2013-10-20 20:58:00,51.6,48.0,29.99,SW,231,0.0,0.0,88,0.00,,,0.00,0,weatherlink.com 1.10,2013-10-21 01:58:00,
2013-10-20 21:13:00,51.1,48.0,29.99,SW,232,0.0,0.0,89,0.00,,,0.00,0,weatherlink.com 1.10,2013-10-21 02:13:00,
2013-10-20 21:28:00,50.8,48.0,29.99,SW,233,0.0,0.0,89,0.00,,,0.00,0,weatherlink.com 1.10,2013-10-21 02:28:00,
2013-10-20 21:43:00,50.4,47.0,30.00,SW,232,0.0,0.0,89,0.00,,,0.00,0,weatherlink.com 1.10,2013-10-21 02:43:00,
2013-10-20 21:58:00,49.9,47.0,30.00,SW,231,0.0,0.0,89,0.00,,,0.00,0,weatherlink.com 1.10,2013-10-21 02:58:00,
2013-10-20 22:13:00,49.7,47.0,30.00,SW,233,0.0,0.0,90,0.00,,,0.00,0,weatherlink.com 1.10,2013-10-21 03:13:00,
2013-10-20 22:28:00,49.3,47.0,30.00,SW,232,0.0,0.0,90,0.00,,,0.00,0,weatherlink.com 1.10,2013-10-21 03:28:00,
2013-10-20 22:43:00,49.0,46.0,30.00,SW,231,0.0,0.0,90,0.00,,,0.00,0,weatherlink.com 1.10,2013-10-21 03:43:00,
2013-10-20 22:58:00,48.6,46.0,30.00,SW,232,0.0,0.0,90,0.00,,,0.00,0,weatherlink.com 1.10,2013-10-21 03:58:00,
2013-10-20 23:13:00,48.5,46.0,30.00,SW,233,0.0,0.0,90,0.00,,,0.00,0,weatherlink.com 1.10,2013-10-21 04:13:00,
2013-10-20 23:28:00,48.2,46.0,30.00,SW,231,0.0,0.0,90,0.00,,,0.00,0,weatherlink.com 1.10,2013-10-21 04:28:00,
2013-10-20 23:43:00,48.1,46.0,30.00,North,4,0.0,0.0,91,0.00,,,0.00,0,weatherlink.com 1.10,2013-10-21 04:43:00,
2013-10-20 23:58:00,48.3,46.0,30.00,SW,232,0.0,0.0,91,0.00,,,0.00,0,weatherlink.com 1.10,2013-10-21 04:58:00,